Time;durP1;ratioP1;P1;durP2;ratioP2;P2;SDS_P1;SDS_P2;PMS_P1;PMS_P2;Temp;Humidity;BMP_temperature;BMP_pressure;BME280_temperature;BME280_humidity;BME280_pressure;Samples;Min_cycle;Max_cycle;Signal;HPM_P1;HPM_P2
2021/10/11 00:01:02;;;;;;;24.30;16.25;;;;;;;;;;5032522;28;20562;-46
2021/10/11 00:03:29;;;;;;;25.90;15.73;;;;;;;;;;5032293;28;20041;-46
2021/10/11 00:05:56;;;;;;;25.10;15.40;;;;;;;;;;5032275;28;20132;-45
2021/10/11 00:08:23;;;;;;;24.70;16.38;;;;;;;;;;5032648;28;20112;-46
2021/10/11 00:10:51;;;;;;;27.63;16.38;;;;;;;;;;5032075;28;20047;-49
2021/10/11 00:13:19;;;;;;;27.00;16.50;;;;;;;;;;5037854;28;20387;-47
2021/10/11 00:15:46;;;;;;;28.15;16.38;;;;;;;;;;5048964;28;20212;-45
2021/10/11 00:18:13;;;;;;;25.30;16.45;;;;;;;;;;5032286;28;20049;-46
2021/10/11 00:20:41;;;;;;;24.25;15.63;;;;;;;;;;5047184;28;20572;-45
2021/10/11 00:23:10;;;;;;;25.38;15.75;;;;;;;;;;5031439;28;20041;-46
2021/10/11 00:25:37;;;;;;;23.45;15.30;;;;;;;;;;5032126;28;20072;-47
2021/10/11 00:28:04;;;;;;;27.90;15.98;;;;;;;;;;5032337;28;20041;-45
2021/10/11 00:30:31;;;;;;;23.85;15.25;;;;;;;;;;5044772;28;20040;-49
2021/10/11 00:32:58;;;;;;;24.08;15.02;;;;;;;;;;5052361;28;20124;-45
2021/10/11 00:35:25;;;;;;;25.63;16.58;;;;;;;;;;5051715;28;20095;-49
2021/10/11 00:37:51;;;;;;;25.90;17.00;;;;;;;;;;5052904;28;20136;-47
2021/10/11 00:40:18;;;;;;;26.67;16.55;;;;;;;;;;5036232;28;20049;-49
2021/10/11 00:42:45;;;;;;;26.45;16.55;;;;;;;;;;5031896;28;20053;-45
2021/10/11 00:45:12;;;;;;;25.48;16.60;;;;;;;;;;5031074;28;20061;-47
2021/10/11 00:47:39;;;;;;;25.88;15.95;;;;;;;;;;5031866;28;20056;-48
2021/10/11 00:50:06;;;;;;;24.63;14.68;;;;;;;;;;5031771;28;20038;-51
2021/10/11 00:52:33;;;;;;;24.80;15.32;;;;;;;;;;5032067;28;20071;-44
2021/10/11 00:55:00;;;;;;;23.40;13.82;;;;;;;;;;5031649;28;20045;-44
2021/10/11 00:57:27;;;;;;;22.25;14.35;;;;;;;;;;5058411;28;20576;-46
2021/10/11 00:59:53;;;;;;;22.23;14.45;;;;;;;;;;5054599;28;20132;-48
2021/10/11 01:02:22;;;;;;;20.80;14.02;;;;;;;;;;5031702;28;20038;-45
2021/10/11 01:04:49;;;;;;;23.90;14.20;;;;;;;;;;5031208;28;20038;-47
2021/10/11 01:07:16;;;;;;;23.40;14.55;;;;;;;;;;5032018;28;20042;-50
2021/10/11 01:09:43;;;;;;;22.30;13.60;;;;;;;;;;5031290;28;20494;-49
2021/10/11 01:12:09;;;;;;;22.25;14.65;;;;;;;;;;5031896;28;20038;-46
2021/10/11 01:14:36;;;;;;;24.08;14.63;;;;;;;;;;5047839;28;20044;-48
2021/10/11 01:17:03;;;;;;;22.98;14.32;;;;;;;;;;5051432;28;20505;-46
2021/10/11 01:19:30;;;;;;;23.52;13.65;;;;;;;;;;5045585;28;20393;-45
2021/10/11 01:21:57;;;;;;;20.38;13.77;;;;;;;;;;5031354;28;20048;-48
2021/10/11 01:24:23;;;;;;;21.92;13.93;;;;;;;;;;5030661;28;20041;-45
2021/10/11 01:26:50;;;;;;;21.40;13.57;;;;;;;;;;5031262;28;20049;-45
2021/10/11 01:29:17;;;;;;;23.40;15.32;;;;;;;;;;5013438;28;20084;-45
2021/10/11 01:31:44;;;;;;;22.13;14.73;;;;;;;;;;5031262;28;20444;-45
2021/10/11 01:34:11;;;;;;;21.67;13.63;;;;;;;;;;5030627;28;20468;-45
2021/10/11 01:36:38;;;;;;;16.90;11.27;;;;;;;;;;5031008;28;20038;-46
2021/10/11 01:39:07;;;;;;;16.77;11.18;;;;;;;;;;5030910;28;20494;-48
2021/10/11 01:41:34;;;;;;;15.23;10.38;;;;;;;;;;5031115;28;20048;-44
2021/10/11 01:44:01;;;;;;;16.35;10.65;;;;;;;;;;5029329;28;20076;-45
2021/10/11 01:46:28;;;;;;;14.93;10.60;;;;;;;;;;5031265;28;20088;-45
2021/10/11 01:48:55;;;;;;;14.75;9.63;;;;;;;;;;5031328;28;20443;-45
2021/10/11 01:51:22;;;;;;;16.75;10.80;;;;;;;;;;5031260;28;20048;-47
2021/10/11 01:53:50;;;;;;;15.30;10.18;;;;;;;;;;5030843;28;20048;-45
2021/10/11 01:56:17;;;;;;;14.43;10.10;;;;;;;;;;5031365;28;20041;-48
2021/10/11 01:58:44;;;;;;;15.20;10.30;;;;;;;;;;5031310;28;20111;-49
2021/10/11 02:01:11;;;;;;;14.35;9.70;;;;;;;;;;5028931;28;20049;-47
2021/10/11 02:03:38;;;;;;;14.80;10.32;;;;;;;;;;5029450;28;20041;-47
2021/10/11 02:06:05;;;;;;;14.98;10.57;;;;;;;;;;5031151;28;20076;-46
2021/10/11 02:08:31;;;;;;;13.93;9.38;;;;;;;;;;5029948;28;20510;-47
2021/10/11 02:10:58;;;;;;;15.52;10.10;;;;;;;;;;5030253;28;20045;-51
2021/10/11 02:13:25;;;;;;;16.65;10.60;;;;;;;;;;5037708;28;20045;-46
2021/10/11 02:15:52;;;;;;;14.80;10.15;;;;;;;;;;5049388;28;20462;-46
2021/10/11 02:18:22;;;;;;;15.27;10.02;;;;;;;;;;5031096;28;20132;-46
2021/10/11 02:20:49;;;;;;;14.80;10.40;;;;;;;;;;5032436;28;20045;-47
2021/10/11 02:23:17;;;;;;;16.50;10.85;;;;;;;;;;5033784;28;20187;-48
2021/10/11 02:25:44;;;;;;;18.20;11.38;;;;;;;;;;5034559;28;20051;-46
2021/10/11 02:28:10;;;;;;;17.77;11.00;;;;;;;;;;5034578;28;20414;-46
2021/10/11 02:30:37;;;;;;;20.05;12.10;;;;;;;;;;5034193;28;20410;-48
2021/10/11 02:33:04;;;;;;;21.80;13.70;;;;;;;;;;5034220;28;20049;-47
2021/10/11 02:35:31;;;;;;;19.30;12.57;;;;;;;;;;5033165;28;20570;-47
2021/10/11 02:37:57;;;;;;;18.05;11.55;;;;;;;;;;5033704;28;20128;-47
2021/10/11 02:40:24;;;;;;;18.98;11.65;;;;;;;;;;5034477;28;20041;-46
2021/10/11 02:42:53;;;;;;;22.25;13.20;;;;;;;;;;5034935;28;20156;-47
2021/10/11 02:45:20;;;;;;;20.35;12.38;;;;;;;;;;5033906;28;20096;-48
2021/10/11 02:47:46;;;;;;;21.58;13.07;;;;;;;;;;5045891;28;20044;-47
2021/10/11 02:50:13;;;;;;;19.33;12.38;;;;;;;;;;5034228;28;20037;-47
2021/10/11 02:52:40;;;;;;;21.05;12.68;;;;;;;;;;5034189;28;20059;-46
2021/10/11 02:55:07;;;;;;;18.70;11.85;;;;;;;;;;5033851;28;20038;-46
2021/10/11 02:57:34;;;;;;;16.65;10.75;;;;;;;;;;5034060;28;20049;-47
2021/10/11 03:00:01;;;;;;;18.52;12.15;;;;;;;;;;5042208;28;20473;-47
2021/10/11 03:02:28;;;;;;;23.13;13.23;;;;;;;;;;5053815;28;20041;-45
2021/10/11 03:04:55;;;;;;;21.33;12.55;;;;;;;;;;5053568;28;20087;-46
2021/10/11 03:07:21;;;;;;;25.15;14.23;;;;;;;;;;5053792;28;20098;-45
2021/10/11 03:09:48;;;;;;;21.08;13.05;;;;;;;;;;5039346;28;20652;-46
2021/10/11 03:12:15;;;;;;;30.00;14.95;;;;;;;;;;5033845;28;20132;-45
2021/10/11 03:14:42;;;;;;;23.20;12.85;;;;;;;;;;5051291;28;20137;-46
2021/10/11 03:17:12;;;;;;;19.48;12.13;;;;;;;;;;5051693;28;20123;-45
2021/10/11 03:19:39;;;;;;;27.48;13.40;;;;;;;;;;5033988;28;20133;-47
2021/10/11 03:22:05;;;;;;;25.15;13.05;;;;;;;;;;5033773;28;20125;-44
2021/10/11 03:24:32;;;;;;;22.30;12.82;;;;;;;;;;5033477;28;20043;-45
2021/10/11 03:26:59;;;;;;;22.38;12.57;;;;;;;;;;5033647;28;20495;-48
2021/10/11 03:29:26;;;;;;;23.42;13.27;;;;;;;;;;5033516;28;20038;-47
2021/10/11 03:31:53;;;;;;;27.48;12.88;;;;;;;;;;5033125;28;20140;-48
2021/10/11 03:34:20;;;;;;;22.75;12.63;;;;;;;;;;5033483;28;20052;-46
2021/10/11 03:36:47;;;;;;;21.15;12.43;;;;;;;;;;5033859;28;20042;-46
2021/10/11 03:39:14;;;;;;;22.73;13.20;;;;;;;;;;5033235;28;20522;-49
2021/10/11 03:41:41;;;;;;;20.25;12.73;;;;;;;;;;5033476;28;20068;-46
2021/10/11 03:44:07;;;;;;;26.65;11.80;;;;;;;;;;5033193;28;20047;-46
2021/10/11 03:46:34;;;;;;;19.67;11.90;;;;;;;;;;5033514;28;20041;-49
2021/10/11 03:49:03;;;;;;;19.85;12.18;;;;;;;;;;5033162;28;20034;-49
2021/10/11 03:51:30;;;;;;;18.88;11.85;;;;;;;;;;5033295;28;20045;-46
2021/10/11 03:53:56;;;;;;;19.88;11.15;;;;;;;;;;5032865;28;20490;-47
2021/10/11 03:56:23;;;;;;;21.38;12.35;;;;;;;;;;5051649;28;20131;-45
2021/10/11 03:58:50;;;;;;;20.15;11.82;;;;;;;;;;5051090;28;20052;-47
2021/10/11 04:01:17;;;;;;;16.60;11.00;;;;;;;;;;5032854;28;20042;-47
2021/10/11 04:03:44;;;;;;;17.75;10.98;;;;;;;;;;5031680;28;20042;-47
2021/10/11 04:06:11;;;;;;;17.80;11.30;;;;;;;;;;5033137;28;20095;-50
2021/10/11 04:08:40;;;;;;;15.52;10.27;;;;;;;;;;5032844;28;20065;-46
2021/10/11 04:13:37;;;;;;;13.60;8.95;;;;;;;;;;5041533;28;20491;-46
2021/10/11 04:16:05;;;;;;;14.38;9.82;;;;;;;;;;5052749;28;20080;-47
2021/10/11 04:18:32;;;;;;;15.10;10.15;;;;;;;;;;5050329;28;20051;-47
2021/10/11 04:20:59;;;;;;;13.82;9.40;;;;;;;;;;5032828;28;20626;-47
2021/10/11 04:23:26;;;;;;;15.60;9.23;;;;;;;;;;5032421;28;20045;-47
2021/10/11 04:25:53;;;;;;;13.90;9.18;;;;;;;;;;5032855;28;20045;-47
2021/10/11 04:28:20;;;;;;;15.15;9.35;;;;;;;;;;5032478;28;20133;-46
2021/10/11 04:30:47;;;;;;;12.25;8.45;;;;;;;;;;5031722;28;20049;-45
2021/10/11 04:33:14;;;;;;;14.60;9.48;;;;;;;;;;5032189;28;20041;-44
2021/10/11 04:35:42;;;;;;;12.45;8.35;;;;;;;;;;5032434;28;20053;-46
2021/10/11 04:38:09;;;;;;;21.60;9.52;;;;;;;;;;5032026;28;20044;-44
2021/10/11 04:40:36;;;;;;;13.88;9.20;;;;;;;;;;5030668;28;20045;-45
2021/10/11 04:43:03;;;;;;;12.90;8.73;;;;;;;;;;5030175;28;20176;-46
2021/10/11 04:45:31;;;;;;;12.88;8.75;;;;;;;;;;5032167;28;20064;-48
2021/10/11 04:47:58;;;;;;;13.65;8.70;;;;;;;;;;5048361;28;20504;-45
2021/10/11 04:50:25;;;;;;;13.45;8.48;;;;;;;;;;5032061;28;20129;-44
2021/10/11 04:52:52;;;;;;;14.00;9.50;;;;;;;;;;5031700;28;20052;-47
2021/10/11 04:55:19;;;;;;;13.27;8.65;;;;;;;;;;5044886;28;20044;-47
2021/10/11 04:57:46;;;;;;;13.48;8.80;;;;;;;;;;5067427;28;20461;-45
2021/10/11 05:00:13;;;;;;;13.75;8.68;;;;;;;;;;5031990;28;20150;-49
2021/10/11 05:02:40;;;;;;;14.10;8.85;;;;;;;;;;5032308;28;20050;-46
2021/10/11 05:05:07;;;;;;;13.25;8.95;;;;;;;;;;5031769;28;20047;-48
2021/10/11 05:07:34;;;;;;;12.48;8.98;;;;;;;;;;5031710;28;20507;-46
2021/10/11 05:10:01;;;;;;;13.35;8.93;;;;;;;;;;5031801;28;20125;-47
2021/10/11 05:12:27;;;;;;;11.63;7.97;;;;;;;;;;5031728;28;20071;-47
2021/10/11 05:14:54;;;;;;;14.25;8.48;;;;;;;;;;5044858;28;20071;-49
2021/10/11 05:17:21;;;;;;;13.20;8.63;;;;;;;;;;5049366;28;20068;-48
2021/10/11 05:19:48;;;;;;;14.52;8.60;;;;;;;;;;5051267;28;20132;-48
2021/10/11 05:22:14;;;;;;;13.77;8.70;;;;;;;;;;5051627;28;20051;-49
2021/10/11 05:24:41;;;;;;;13.23;8.23;;;;;;;;;;5049959;28;20041;-47
2021/10/11 05:27:08;;;;;;;12.27;7.85;;;;;;;;;;5031793;28;20406;-47
2021/10/11 05:29:37;;;;;;;13.32;8.98;;;;;;;;;;5031515;28;20033;-49
2021/10/11 05:32:05;;;;;;;11.80;8.07;;;;;;;;;;5030964;28;20036;-48
2021/10/11 05:34:32;;;;;;;11.57;7.72;;;;;;;;;;5032004;28;20510;-47
2021/10/11 05:36:59;;;;;;;13.88;8.13;;;;;;;;;;5031753;28;20072;-47
2021/10/11 05:39:25;;;;;;;12.73;8.43;;;;;;;;;;5031672;28;20051;-48
2021/10/11 05:41:52;;;;;;;11.73;8.25;;;;;;;;;;5031765;28;20087;-44
2021/10/11 05:44:19;;;;;;;10.98;7.55;;;;;;;;;;5031932;28;20041;-44
2021/10/11 05:46:48;;;;;;;11.30;8.00;;;;;;;;;;5047692;28;20117;-45
2021/10/11 05:49:15;;;;;;;13.82;8.20;;;;;;;;;;5051474;28;20094;-49
2021/10/11 05:51:41;;;;;;;10.55;7.30;;;;;;;;;;5049987;28;20528;-47
2021/10/11 05:54:08;;;;;;;12.57;7.68;;;;;;;;;;5046146;28;20410;-45
2021/10/11 05:56:35;;;;;;;11.52;7.85;;;;;;;;;;5045544;28;20500;-46
2021/10/11 05:59:02;;;;;;;13.60;7.70;;;;;;;;;;5053694;28;20044;-46
2021/10/11 06:01:29;;;;;;;13.55;7.45;;;;;;;;;;5045516;28;20128;-46
2021/10/11 06:03:56;;;;;;;12.90;7.00;;;;;;;;;;5055060;28;20133;-47
2021/10/11 06:06:23;;;;;;;9.70;6.82;;;;;;;;;;5054136;28;20036;-45
2021/10/11 06:08:50;;;;;;;10.93;7.30;;;;;;;;;;5043635;28;20099;-46
2021/10/11 06:11:17;;;;;;;10.93;6.93;;;;;;;;;;5034949;28;20080;-46
2021/10/11 06:13:44;;;;;;;10.05;6.90;;;;;;;;;;5045825;28;20088;-46
2021/10/11 06:16:11;;;;;;;10.63;6.68;;;;;;;;;;5045108;28;20140;-46
2021/10/11 06:18:38;;;;;;;11.85;7.10;;;;;;;;;;5043210;28;20128;-46
2021/10/11 06:21:05;;;;;;;12.43;6.90;;;;;;;;;;5053725;28;20052;-47
2021/10/11 06:23:32;;;;;;;12.98;7.65;;;;;;;;;;5046531;28;20045;-48
2021/10/11 06:25:58;;;;;;;14.75;7.32;;;;;;;;;;5038700;28;20174;-47
2021/10/11 06:28:25;;;;;;;12.93;8.02;;;;;;;;;;5055090;28;20041;-48
2021/10/11 06:30:52;;;;;;;16.50;7.22;;;;;;;;;;5052789;28;20045;-47
2021/10/11 06:33:21;;;;;;;12.85;8.15;;;;;;;;;;5054259;28;20039;-47
2021/10/11 06:35:51;;;;;;;11.85;7.32;;;;;;;;;;5054276;28;20041;-48
2021/10/11 06:38:18;;;;;;;11.98;7.72;;;;;;;;;;5054640;28;20041;-47
2021/10/11 06:40:50;;;;;;;12.02;7.45;;;;;;;;;;5051072;28;20044;-47
2021/10/11 06:43:17;;;;;;;14.02;8.05;;;;;;;;;;5051721;28;20123;-50
2021/10/11 06:45:44;;;;;;;28.77;9.52;;;;;;;;;;5044766;28;20032;-48
2021/10/11 06:48:11;;;;;;;11.48;8.20;;;;;;;;;;5054445;28;20076;-49
2021/10/11 06:50:38;;;;;;;13.23;8.95;;;;;;;;;;5043627;28;20037;-44
2021/10/11 06:53:05;;;;;;;11.60;7.25;;;;;;;;;;5053558;28;20565;-45
2021/10/11 06:55:31;;;;;;;13.25;7.53;;;;;;;;;;5054327;28;20045;-46
2021/10/11 06:58:00;;;;;;;11.90;7.22;;;;;;;;;;5036979;28;20427;-48
2021/10/11 07:00:27;;;;;;;11.90;7.68;;;;;;;;;;5034194;28;20076;-45
2021/10/11 07:02:54;;;;;;;11.95;7.70;;;;;;;;;;5034272;28;20054;-45
2021/10/11 07:05:20;;;;;;;14.20;8.02;;;;;;;;;;5034146;28;20072;-45
2021/10/11 07:07:47;;;;;;;11.27;7.88;;;;;;;;;;5033391;28;20037;-46
2021/10/11 07:10:14;;;;;;;13.65;7.78;;;;;;;;;;5033771;28;20045;-46
2021/10/11 07:12:41;;;;;;;13.85;8.75;;;;;;;;;;5034239;28;20038;-46
2021/10/11 07:15:23;;;;;;;12.50;7.97;;;;;;;;;;5033741;28;20147;-50
2021/10/11 07:17:50;;;;;;;15.73;7.68;;;;;;;;;;5033697;28;20037;-47
2021/10/11 07:20:17;;;;;;;9.73;7.13;;;;;;;;;;5034016;28;20466;-47
2021/10/11 07:22:44;;;;;;;11.52;7.10;;;;;;;;;;5033824;28;20494;-47
2021/10/11 07:25:10;;;;;;;12.70;7.47;;;;;;;;;;5033811;28;20064;-48
2021/10/11 07:27:37;;;;;;;11.10;6.80;;;;;;;;;;5033697;28;20043;-46
2021/10/11 07:30:04;;;;;;;12.65;7.80;;;;;;;;;;5033259;28;20077;-49
2021/10/11 07:32:31;;;;;;;13.90;8.27;;;;;;;;;;5033245;28;20483;-49
2021/10/11 07:34:59;;;;;;;13.73;7.80;;;;;;;;;;5033640;28;20076;-48
2021/10/11 07:37:26;;;;;;;14.10;8.23;;;;;;;;;;5033720;28;20045;-47
2021/10/11 07:39:52;;;;;;;12.50;7.40;;;;;;;;;;5033454;28;20064;-48
2021/10/11 07:42:19;;;;;;;11.27;7.75;;;;;;;;;;5033557;28;20077;-47
2021/10/11 07:44:46;;;;;;;14.88;8.60;;;;;;;;;;5033090;28;20053;-49
2021/10/11 07:47:13;;;;;;;15.80;8.63;;;;;;;;;;5033350;28;20045;-47
2021/10/11 07:49:39;;;;;;;13.27;8.43;;;;;;;;;;5033506;28;20532;-48
2021/10/11 07:52:06;;;;;;;13.18;8.15;;;;;;;;;;5033317;28;20042;-48
2021/10/11 07:54:33;;;;;;;10.52;7.82;;;;;;;;;;5033007;28;20049;-48
2021/10/11 07:57:00;;;;;;;14.52;8.43;;;;;;;;;;5033355;28;20057;-50
2021/10/11 07:59:28;;;;;;;17.70;8.93;;;;;;;;;;5033249;28;20067;-50
2021/10/11 08:01:56;;;;;;;14.23;9.18;;;;;;;;;;5033244;28;20045;-48
2021/10/11 08:04:23;;;;;;;15.57;9.38;;;;;;;;;;5032690;28;20109;-45
2021/10/11 08:06:50;;;;;;;18.48;9.10;;;;;;;;;;5032895;28;20132;-47
2021/10/11 08:09:17;;;;;;;14.15;8.40;;;;;;;;;;5033139;28;20045;-47
2021/10/11 08:11:43;;;;;;;14.60;7.93;;;;;;;;;;5033107;28;20041;-47
2021/10/11 08:14:10;;;;;;;15.00;8.55;;;;;;;;;;5032393;28;20049;-49
2021/10/11 08:16:38;;;;;;;16.25;8.45;;;;;;;;;;5032740;28;20128;-47
2021/10/11 08:19:05;;;;;;;12.48;8.40;;;;;;;;;;5032879;28;20052;-45
2021/10/11 08:21:32;;;;;;;14.98;9.65;;;;;;;;;;5032802;28;20071;-48
2021/10/11 08:23:59;;;;;;;19.67;9.40;;;;;;;;;;5032131;28;20407;-48
2021/10/11 08:26:26;;;;;;;15.98;9.20;;;;;;;;;;5032653;28;20049;-45
2021/10/11 08:28:53;;;;;;;14.65;10.05;;;;;;;;;;5031436;28;20042;-49
2021/10/11 08:31:20;;;;;;;15.88;9.23;;;;;;;;;;5033169;28;20511;-48
2021/10/11 08:33:47;;;;;;;16.85;10.45;;;;;;;;;;5032223;28;20042;-49
2021/10/11 08:36:14;;;;;;;14.68;9.98;;;;;;;;;;5032387;28;20136;-45
2021/10/11 08:38:41;;;;;;;16.50;10.85;;;;;;;;;;5032199;28;20483;-50
2021/10/11 08:41:08;;;;;;;17.02;11.05;;;;;;;;;;5032271;28;20474;-46
2021/10/11 08:43:36;;;;;;;13.90;10.02;;;;;;;;;;5032283;28;20053;-49
2021/10/11 08:46:03;;;;;;;16.05;10.98;;;;;;;;;;5030884;28;20535;-48
2021/10/11 08:48:31;;;;;;;17.02;10.98;;;;;;;;;;5032027;28;20164;-49
2021/10/11 08:50:58;;;;;;;17.50;10.07;;;;;;;;;;5032020;28;20046;-47
2021/10/11 08:53:24;;;;;;;16.70;9.80;;;;;;;;;;5031952;28;20503;-48
2021/10/11 08:55:51;;;;;;;18.48;10.85;;;;;;;;;;5031986;28;20052;-46
2021/10/11 08:58:18;;;;;;;17.30;11.10;;;;;;;;;;5031712;28;20042;-50
2021/10/11 09:00:45;;;;;;;17.00;10.60;;;;;;;;;;5031490;28;20052;-47
2021/10/11 09:03:16;;;;;;;16.83;10.77;;;;;;;;;;5031489;28;20041;-48
2021/10/11 09:05:46;;;;;;;15.80;10.52;;;;;;;;;;5031695;28;20041;-45
2021/10/11 09:08:16;;;;;;;17.10;10.82;;;;;;;;;;5031779;28;20128;-46
2021/10/11 09:10:49;;;;;;;18.05;12.48;;;;;;;;;;5031842;28;20124;-44
2021/10/11 09:13:16;;;;;;;17.52;10.88;;;;;;;;;;5031439;28;20034;-49
2021/10/11 09:15:43;;;;;;;17.98;10.80;;;;;;;;;;5031623;28;20049;-44
2021/10/11 09:18:11;;;;;;;17.63;11.80;;;;;;;;;;5031429;28;20041;-46
2021/10/11 09:20:40;;;;;;;15.68;10.88;;;;;;;;;;5031499;28;20076;-47
2021/10/11 09:23:08;;;;;;;19.00;11.07;;;;;;;;;;5031289;28;20046;-46
2021/10/11 09:25:39;;;;;;;16.05;11.27;;;;;;;;;;5031284;28;20033;-50
2021/10/11 09:28:06;;;;;;;16.63;12.00;;;;;;;;;;5031528;28;20542;-47
2021/10/11 09:30:41;;;;;;;17.75;12.13;;;;;;;;;;5036829;28;20045;-47
2021/10/11 09:33:15;;;;;;;21.25;12.75;;;;;;;;;;5038052;28;20050;-49
2021/10/11 09:35:43;;;;;;;20.73;13.13;;;;;;;;;;5038450;28;20451;-48
2021/10/11 09:38:26;;;;;;;19.35;13.27;;;;;;;;;;5037418;28;20515;-48
2021/10/11 09:40:54;;;;;;;18.75;12.95;;;;;;;;;;5037918;28;20041;-49
2021/10/11 09:43:22;;;;;;;23.80;14.02;;;;;;;;;;5037923;28;20091;-49
2021/10/11 09:45:50;;;;;;;20.90;13.10;;;;;;;;;;5038258;28;20037;-50
2021/10/11 09:48:17;;;;;;;23.13;12.70;;;;;;;;;;5037931;28;20100;-48
2021/10/11 09:50:45;;;;;;;18.98;12.80;;;;;;;;;;5037916;28;20408;-49
2021/10/11 09:53:13;;;;;;;21.95;13.05;;;;;;;;;;5036368;28;20037;-48
2021/10/11 09:55:41;;;;;;;21.52;13.82;;;;;;;;;;5038200;28;20056;-47
2021/10/11 09:58:11;;;;;;;20.50;13.93;;;;;;;;;;5037810;28;20045;-45
2021/10/11 10:00:39;;;;;;;16.27;11.70;;;;;;;;;;5037800;28;20069;-48
2021/10/11 10:03:06;;;;;;;16.15;11.73;;;;;;;;;;5037634;28;20129;-48
2021/10/11 10:05:38;;;;;;;17.85;12.18;;;;;;;;;;5053311;28;20144;-46
2021/10/11 10:08:13;;;;;;;18.10;12.35;;;;;;;;;;5038021;28;20133;-46
2021/10/11 10:10:41;;;;;;;17.27;12.00;;;;;;;;;;5037896;28;20045;-46
2021/10/11 10:13:20;;;;;;;16.92;11.65;;;;;;;;;;5037588;28;20044;-48
2021/10/11 10:15:48;;;;;;;19.38;11.88;;;;;;;;;;5037769;28;20047;-50
2021/10/11 10:18:16;;;;;;;21.60;12.40;;;;;;;;;;5037435;28;20411;-49
2021/10/11 10:20:50;;;;;;;16.00;10.40;;;;;;;;;;5036330;28;20073;-50
2021/10/11 10:23:35;;;;;;;14.95;10.45;;;;;;;;;;5037505;28;20053;-46
2021/10/11 10:26:01;;;;;;;;;;;;;;;;;;5053835;28;20072;-47
2021/10/11 10:28:46;;;;;;;15.15;10.60;;;;;;;;;;5057211;28;19987;-48
2021/10/11 10:31:32;;;;;;;19.08;11.32;;;;;;;;;;5038092;28;20068;-50
2021/10/11 10:34:01;;;;;;;14.27;10.38;;;;;;;;;;5037445;28;20043;-49
2021/10/11 10:36:29;;;;;;;17.08;10.85;;;;;;;;;;5037842;28;20419;-47
2021/10/11 10:39:05;;;;;;;15.30;10.25;;;;;;;;;;5037293;28;20056;-47
2021/10/11 10:41:32;;;;;;;17.48;9.43;;;;;;;;;;5034581;28;20052;-49
2021/10/11 10:44:19;;;;;;;15.02;10.55;;;;;;;;;;5034094;28;20075;-45
2021/10/11 10:46:54;;;;;;;14.85;10.45;;;;;;;;;;5034316;28;20041;-47
2021/10/11 10:49:34;;;;;;;16.50;11.10;;;;;;;;;;5034343;28;20602;-49
2021/10/11 10:52:02;;;;;;;19.23;10.93;;;;;;;;;;5033994;28;20061;-46
2021/10/11 10:54:43;;;;;;;15.00;10.27;;;;;;;;;;5034903;28;20045;-48
2021/10/11 10:57:13;;;;;;;13.68;9.20;;;;;;;;;;5034908;28;20038;-50
2021/10/11 10:59:40;;;;;;;13.02;9.23;;;;;;;;;;5033882;28;20044;-48
2021/10/11 11:02:08;;;;;;;13.20;9.10;;;;;;;;;;5032975;28;20045;-46
2021/10/11 11:04:40;;;;;;;;;;;;;;;;;;5034059;28;20045;-48
2021/10/11 11:07:08;;;;;;;13.63;9.63;;;;;;;;;;5033794;28;19921;-45
2021/10/11 11:09:42;;;;;;;16.55;10.20;;;;;;;;;;5033891;28;20084;-45
2021/10/11 11:12:09;;;;;;;14.38;10.23;;;;;;;;;;5033849;28;20072;-47
2021/10/11 11:14:36;;;;;;;17.98;10.93;;;;;;;;;;5033667;28;20045;-45
2021/10/11 11:17:03;;;;;;;13.65;9.55;;;;;;;;;;5033936;28;20045;-48
2021/10/11 11:19:37;;;;;;;14.90;9.98;;;;;;;;;;5032493;28;20072;-49
2021/10/11 11:22:04;;;;;;;15.05;8.43;;;;;;;;;;5033961;28;20156;-46
2021/10/11 11:24:32;;;;;;;12.43;8.77;;;;;;;;;;5033252;28;20045;-50
2021/10/11 11:27:01;;;;;;;13.32;7.82;;;;;;;;;;5033648;28;20049;-47
2021/10/11 11:29:30;;;;;;;12.75;7.60;;;;;;;;;;5033371;28;20056;-49
2021/10/11 11:31:57;;;;;;;15.65;8.45;;;;;;;;;;5033647;28;20052;-49
2021/10/11 11:34:38;;;;;;;13.60;8.73;;;;;;;;;;5033467;28;20465;-46
2021/10/11 11:37:11;;;;;;;11.20;8.40;;;;;;;;;;5033920;28;20053;-48
2021/10/11 11:39:45;;;;;;;12.77;8.60;;;;;;;;;;5029988;28;20041;-52
2021/10/11 11:42:15;;;;;;;13.07;8.80;;;;;;;;;;5033214;28;20082;-52
2021/10/11 11:44:42;;;;;;;11.60;7.63;;;;;;;;;;5032844;28;20075;-52
2021/10/11 11:47:10;;;;;;;10.30;7.30;;;;;;;;;;5033114;28;20041;-48
2021/10/11 11:49:40;;;;;;;11.95;6.13;;;;;;;;;;5033043;28;20045;-52
2021/10/11 11:52:07;;;;;;;11.82;7.07;;;;;;;;;;5032843;28;20046;-49
2021/10/11 11:54:34;;;;;;;14.70;7.57;;;;;;;;;;5032601;28;20048;-48
2021/10/11 11:57:01;;;;;;;9.90;7.05;;;;;;;;;;5032868;28;20045;-49
2021/10/11 11:59:28;;;;;;;8.32;6.10;;;;;;;;;;5032734;28;20455;-51
2021/10/11 12:01:55;;;;;;;9.55;6.47;;;;;;;;;;5033184;28;20149;-50
2021/10/11 12:04:22;;;;;;;10.25;6.90;;;;;;;;;;5032552;28;20038;-50
2021/10/11 12:06:52;;;;;;;10.77;7.80;;;;;;;;;;5032762;28;20045;-48
2021/10/11 12:09:22;;;;;;;9.07;7.13;;;;;;;;;;5032449;28;20128;-49
2021/10/11 12:11:59;;;;;;;9.73;7.10;;;;;;;;;;5032539;28;20073;-50
2021/10/11 12:14:26;;;;;;;9.60;6.45;;;;;;;;;;5031317;28;20053;-48
2021/10/11 12:17:01;;;;;;;8.50;5.95;;;;;;;;;;5033073;28;20103;-50
2021/10/11 12:19:29;;;;;;;10.25;6.82;;;;;;;;;;5032397;28;20044;-52
2021/10/11 12:21:56;;;;;;;12.02;6.47;;;;;;;;;;5032731;28;20049;-50
2021/10/11 12:24:25;;;;;;;10.80;6.25;;;;;;;;;;5031117;28;20048;-49
2021/10/11 12:26:51;;;;;;;10.00;6.90;;;;;;;;;;5032159;28;20040;-47
2021/10/11 12:29:22;;;;;;;7.82;6.20;;;;;;;;;;5032565;28;20045;-48
2021/10/11 12:32:09;;;;;;;9.65;6.65;;;;;;;;;;5032535;28;20483;-47
2021/10/11 12:34:37;;;;;;;8.02;5.80;;;;;;;;;;5031867;28;20071;-51
2021/10/11 12:37:09;;;;;;;9.85;5.78;;;;;;;;;;5032543;28;20038;-48
2021/10/11 12:39:37;;;;;;;9.23;5.78;;;;;;;;;;5031946;28;20045;-50
2021/10/11 12:42:13;;;;;;;8.52;5.93;;;;;;;;;;5032306;28;20041;-46
2021/10/11 12:44:43;;;;;;;13.23;6.20;;;;;;;;;;5031900;28;20056;-46
2021/10/11 12:47:20;;;;;;;9.77;5.70;;;;;;;;;;5032725;28;20561;-47
2021/10/11 12:49:47;;;;;;;9.88;5.80;;;;;;;;;;5033656;28;20033;-47
2021/10/11 12:52:15;;;;;;;10.77;7.15;;;;;;;;;;5032890;28;20049;-47
2021/10/11 12:54:41;;;;;;;11.60;6.38;;;;;;;;;;5031636;28;20050;-47
2021/10/11 12:57:08;;;;;;;10.05;5.97;;;;;;;;;;5031947;28;20045;-50
2021/10/11 12:59:39;;;;;;;8.30;6.65;;;;;;;;;;5031957;28;20045;-45
2021/10/11 13:02:06;;;;;;;11.30;6.53;;;;;;;;;;5032511;28;20060;-45
2021/10/11 13:04:33;;;;;;;8.05;5.30;;;;;;;;;;5031229;28;20132;-49
2021/10/11 13:06:59;;;;;;;10.02;6.25;;;;;;;;;;5031770;28;20135;-47
2021/10/11 13:09:26;;;;;;;8.38;6.30;;;;;;;;;;5031647;28;20073;-47
2021/10/11 13:11:53;;;;;;;9.52;6.10;;;;;;;;;;5031547;28;20034;-50
2021/10/11 13:14:20;;;;;;;8.95;6.03;;;;;;;;;;5031557;28;20042;-47
2021/10/11 13:16:47;;;;;;;9.00;5.10;;;;;;;;;;5031576;28;20037;-48
2021/10/11 13:19:14;;;;;;;8.10;5.13;;;;;;;;;;5031316;28;20042;-48
2021/10/11 13:21:41;;;;;;;9.15;6.10;;;;;;;;;;5031433;28;20068;-47
2021/10/11 13:24:08;;;;;;;11.10;6.57;;;;;;;;;;5031201;28;20068;-48
2021/10/11 13:26:35;;;;;;;10.52;6.20;;;;;;;;;;5030903;28;20041;-53
2021/10/11 14:34:45;;;;;;;11.93;7.38;;;;;;;;;;5034458;28;20034;-49
2021/10/11 16:00:25;;;;;;;9.93;5.80;;;;;;;;;;5032527;28;20038;-44
2021/10/11 16:03:03;;;;;;;10.27;6.28;;;;;;;;;;5033255;28;20045;-44
2021/10/11 16:05:30;;;;;;;10.15;6.05;;;;;;;;;;5032415;28;20046;-47
2021/10/11 16:07:57;;;;;;;8.38;5.57;;;;;;;;;;5031485;28;20513;-47
2021/10/11 16:10:24;;;;;;;12.07;6.00;;;;;;;;;;5032944;28;20519;-45
2021/10/11 16:12:51;;;;;;;8.75;5.85;;;;;;;;;;5032818;28;20124;-45
2021/10/11 16:15:17;;;;;;;9.52;5.90;;;;;;;;;;5031847;28;20049;-46
2021/10/11 16:18:04;;;;;;;8.88;5.00;;;;;;;;;;5012719;28;20034;-46
2021/10/11 16:20:31;;;;;;;10.75;6.13;;;;;;;;;;5012822;28;20148;-47
2021/10/11 16:22:58;;;;;;;13.95;5.90;;;;;;;;;;5012362;28;20496;-49
2021/10/11 16:25:25;;;;;;;10.10;5.97;;;;;;;;;;5022259;28;20048;-45
2021/10/11 16:27:52;;;;;;;9.98;6.05;;;;;;;;;;5031054;28;20090;-44
2021/10/11 16:30:19;;;;;;;10.40;5.97;;;;;;;;;;5031491;28;20046;-47
2021/10/11 16:32:46;;;;;;;9.93;5.93;;;;;;;;;;5032490;28;20046;-44
2021/10/11 16:35:13;;;;;;;10.25;5.88;;;;;;;;;;5031428;28;20124;-47
2021/10/11 16:37:40;;;;;;;11.60;5.97;;;;;;;;;;5047640;28;20045;-45
2021/10/11 16:40:07;;;;;;;12.95;5.97;;;;;;;;;;5030512;28;20075;-47
2021/10/11 16:42:34;;;;;;;12.60;6.93;;;;;;;;;;5032332;28;20042;-45
2021/10/11 16:45:01;;;;;;;11.50;6.43;;;;;;;;;;5031475;28;20037;-46
2021/10/11 16:47:28;;;;;;;11.10;5.53;;;;;;;;;;5030905;28;20483;-46
2021/10/11 16:49:55;;;;;;;10.38;6.18;;;;;;;;;;5031833;28;20044;-45
2021/10/11 16:52:23;;;;;;;9.15;5.97;;;;;;;;;;5031870;28;20145;-47
2021/10/11 16:54:50;;;;;;;13.07;6.60;;;;;;;;;;5031110;28;20052;-44
2021/10/11 16:57:17;;;;;;;11.98;5.95;;;;;;;;;;5030725;28;20080;-46
2021/10/11 16:59:44;;;;;;;12.00;6.38;;;;;;;;;;5030161;28;20044;-43
2021/10/11 17:02:11;;;;;;;11.60;6.45;;;;;;;;;;5031519;28;20449;-43